Time;durP1;ratioP1;P1;durP2;ratioP2;P2;SDS_P1;SDS_P2;PMS_P1;PMS_P2;Temp;Humidity;BMP_temperature;BMP_pressure;BME280_temperature;BME280_humidity;BME280_pressure;Samples;Min_cycle;Max_cycle;Signal;HPM_P1;HPM_P2
2022/09/23 00:04:41;;;;;;;10.60;8.02;;;;;;;;;;10266675;28;20424;-74
2022/09/23 00:09:41;;;;;;;13.48;7.95;;;;;;;;;;10268297;28;20034;-73
2022/09/23 00:14:41;;;;;;;16.45;7.85;;;;;;;;;;10267999;28;20026;-74
2022/09/23 00:19:42;;;;;;;12.55;8.00;;;;;;;;;;10274178;28;20039;-76
2022/09/23 00:24:42;;;;;;;11.07;8.15;;;;;;;;;;10271753;28;20485;-72
2022/09/23 00:29:42;;;;;;;12.30;9.10;;;;;;;;;;10267263;28;20465;-71
2022/09/23 00:34:43;;;;;;;10.30;7.28;;;;;;;;;;10267823;28;20075;-76
2022/09/23 00:39:44;;;;;;;11.77;8.00;;;;;;;;;;10267197;28;20078;-74
2022/09/23 00:44:44;;;;;;;10.60;8.15;;;;;;;;;;10266735;28;20074;-73
2022/09/23 00:49:48;;;;;;;11.68;7.68;;;;;;;;;;10266948;28;20026;-76
2022/09/23 00:54:51;;;;;;;12.20;8.20;;;;;;;;;;10283737;28;20113;-72
2022/09/23 00:59:51;;;;;;;15.18;8.20;;;;;;;;;;10266969;28;20035;-79
2022/09/23 01:04:51;;;;;;;12.80;7.27;;;;;;;;;;10267272;28;20051;-77
2022/09/23 01:09:52;;;;;;;10.32;7.53;;;;;;;;;;10266130;28;20057;-77
2022/09/23 01:14:59;;;;;;;8.17;6.53;;;;;;;;;;10250501;28;20077;-76
2022/09/23 01:20:14;;;;;;;10.57;6.72;;;;;;;;;;10265937;28;20270;-73
2022/09/23 01:25:15;;;;;;;13.18;7.13;;;;;;;;;;10266165;28;20042;-72
2022/09/23 01:30:31;;;;;;;9.55;7.38;;;;;;;;;;10265694;28;20162;-72
2022/09/23 01:35:50;;;;;;;7.68;5.93;;;;;;;;;;10265776;28;20101;-76
2022/09/23 01:40:58;;;;;;;10.23;7.35;;;;;;;;;;10277382;28;20117;-78
2022/09/23 01:45:59;;;;;;;7.77;5.83;;;;;;;;;;10282862;28;20018;-75
2022/09/23 01:51:03;;;;;;;10.43;7.03;;;;;;;;;;10264669;28;20460;-73
2022/09/23 01:56:16;;;;;;;8.63;6.63;;;;;;;;;;10265829;28;20026;-75
2022/09/23 02:01:20;;;;;;;9.70;6.97;;;;;;;;;;10265375;28;20464;-75
2022/09/23 02:06:20;;;;;;;9.93;7.38;;;;;;;;;;10265706;28;20070;-79
2022/09/23 02:11:21;;;;;;;12.67;7.97;;;;;;;;;;10265341;28;20113;-74
2022/09/23 02:16:21;;;;;;;11.48;7.30;;;;;;;;;;10265694;28;20105;-73
2022/09/23 02:21:24;;;;;;;12.07;8.57;;;;;;;;;;10265184;28;20420;-76
2022/09/23 02:26:47;;;;;;;15.07;7.63;;;;;;;;;;10265087;28;20110;-73
2022/09/23 02:31:55;;;;;;;14.30;8.23;;;;;;;;;;10253227;28;20039;-73
2022/09/23 02:36:55;;;;;;;12.00;8.73;;;;;;;;;;10272455;28;20023;-72
2022/09/23 02:42:02;;;;;;;15.73;9.75;;;;;;;;;;10272181;28;20082;-78
2022/09/23 02:47:03;;;;;;;14.77;10.13;;;;;;;;;;10271510;28;20102;-73
2022/09/23 02:52:04;;;;;;;15.43;9.80;;;;;;;;;;10271375;28;20090;-74
2022/09/23 02:57:05;;;;;;;12.18;8.57;;;;;;;;;;10270680;28;20361;-73
2022/09/23 03:02:16;;;;;;;11.25;7.50;;;;;;;;;;10271143;28;20085;-74
2022/09/23 03:07:18;;;;;;;12.10;8.13;;;;;;;;;;10270670;28;20097;-74
2022/09/23 03:12:24;;;;;;;14.88;8.30;;;;;;;;;;10270669;28;20114;-74
2022/09/23 03:17:33;;;;;;;10.90;7.68;;;;;;;;;;10270346;28;20033;-79
2022/09/23 03:22:38;;;;;;;10.68;7.78;;;;;;;;;;10270133;28;20019;-73
2022/09/23 03:27:41;;;;;;;12.23;7.97;;;;;;;;;;10287813;28;20074;-77
2022/09/23 03:32:43;;;;;;;13.43;7.03;;;;;;;;;;10254641;28;20569;-75
2022/09/23 03:37:47;;;;;;;13.95;8.02;;;;;;;;;;10286606;28;20109;-77
2022/09/23 03:42:47;;;;;;;13.73;7.93;;;;;;;;;;10269094;28;20456;-73
2022/09/23 03:47:48;;;;;;;12.80;8.00;;;;;;;;;;10267718;28;20105;-74
2022/09/23 03:52:49;;;;;;;9.98;7.75;;;;;;;;;;10286034;28;20030;-73
2022/09/23 03:57:49;;;;;;;19.63;8.57;;;;;;;;;;10267836;28;20051;-74
2022/09/23 04:02:50;;;;;;;13.30;8.70;;;;;;;;;;10267562;28;20031;-76
2022/09/23 04:07:50;;;;;;;11.80;8.68;;;;;;;;;;10243583;29;20106;-75
2022/09/23 04:12:50;;;;;;;14.32;8.55;;;;;;;;;;10228366;29;20051;-72
2022/09/23 04:17:50;;;;;;;21.55;9.07;;;;;;;;;;10226658;28;20533;-73
2022/09/23 04:22:51;;;;;;;17.27;9.65;;;;;;;;;;10226581;29;20493;-77
2022/09/23 04:27:51;;;;;;;14.82;9.68;;;;;;;;;;10244018;28;20078;-78
2022/09/23 04:32:51;;;;;;;12.30;8.52;;;;;;;;;;10242416;28;20046;-73
2022/09/23 04:37:52;;;;;;;19.80;12.20;;;;;;;;;;10241730;29;20034;-74
2022/09/23 04:42:52;;;;;;;14.73;8.82;;;;;;;;;;10242520;29;20038;-74
2022/09/23 04:47:52;;;;;;;15.25;8.88;;;;;;;;;;10242784;29;20720;-74
2022/09/23 04:52:52;;;;;;;12.73;8.57;;;;;;;;;;10242322;28;20041;-77
2022/09/23 04:57:53;;;;;;;13.20;8.27;;;;;;;;;;10242321;29;20074;-73
2022/09/23 05:02:53;;;;;;;13.40;8.57;;;;;;;;;;10234190;28;20027;-74
2022/09/23 05:07:54;;;;;;;15.10;9.38;;;;;;;;;;10224416;29;20457;-76
2022/09/23 05:12:56;;;;;;;18.08;10.50;;;;;;;;;;10244606;28;20027;-77
2022/09/23 05:17:57;;;;;;;19.88;11.13;;;;;;;;;;10242439;29;20027;-74
2022/09/23 05:22:59;;;;;;;20.92;12.23;;;;;;;;;;10235202;29;20505;-73
2022/09/23 05:27:59;;;;;;;24.52;14.43;;;;;;;;;;10233564;28;20490;-74
2022/09/23 05:33:00;;;;;;;26.93;14.97;;;;;;;;;;10234619;29;20027;-77
2022/09/23 05:38:00;;;;;;;36.63;18.52;;;;;;;;;;10235578;28;20035;-75
2022/09/23 05:43:00;;;;;;;29.23;13.70;;;;;;;;;;10227628;29;20471;-77
2022/09/23 05:48:01;;;;;;;31.52;13.00;;;;;;;;;;10282901;23;20057;-74
2022/09/23 05:53:01;;;;;;;19.55;10.88;;;;;;;;;;10258479;28;20509;-77
2022/09/23 05:58:01;;;;;;;17.02;8.30;;;;;;;;;;10266123;28;20416;-75
2022/09/23 06:03:01;;;;;;;14.38;7.90;;;;;;;;;;10264886;28;20117;-74
2022/09/23 06:08:02;;;;;;;16.10;8.30;;;;;;;;;;10277912;28;20035;-74
2022/09/23 06:13:02;;;;;;;9.07;6.65;;;;;;;;;;10289854;28;20038;-73
2022/09/23 06:18:03;;;;;;;12.32;7.28;;;;;;;;;;10272379;28;20039;-74
2022/09/23 06:23:04;;;;;;;12.20;6.90;;;;;;;;;;10290058;28;20019;-74
2022/09/23 06:28:09;;;;;;;12.48;7.15;;;;;;;;;;10272187;28;20025;-74
2022/09/23 06:33:10;;;;;;;13.32;6.55;;;;;;;;;;10261000;28;20409;-74
2022/09/23 06:38:10;;;;;;;12.57;5.20;;;;;;;;;;10271883;28;20037;-78
2022/09/23 06:43:10;;;;;;;12.43;5.55;;;;;;;;;;10250907;28;20019;-78
2022/09/23 06:48:10;;;;;;;7.97;5.55;;;;;;;;;;10262914;28;20062;-78
2022/09/23 06:53:11;;;;;;;8.43;5.95;;;;;;;;;;10271118;28;20025;-75
2022/09/23 06:58:11;;;;;;;8.15;5.53;;;;;;;;;;10271436;28;20052;-75
2022/09/23 07:03:12;;;;;;;9.07;6.03;;;;;;;;;;10264213;28;20465;-75
2022/09/23 07:08:12;;;;;;;6.03;5.37;;;;;;;;;;10287879;28;20055;-75
2022/09/23 07:13:12;;;;;;;6.53;4.85;;;;;;;;;;10269623;28;20350;-78
2022/09/23 07:18:13;;;;;;;6.75;4.10;;;;;;;;;;10270630;28;20039;-79
2022/09/23 07:23:13;;;;;;;10.98;4.55;;;;;;;;;;10270062;28;20023;-79
2022/09/23 07:28:13;;;;;;;8.17;4.00;;;;;;;;;;10254535;28;20020;-81
2022/09/23 07:33:13;;;;;;;6.57;4.28;;;;;;;;;;10257948;28;20030;-76
2022/09/23 07:38:13;;;;;;;5.10;3.53;;;;;;;;;;10270025;28;20030;-75
2022/09/23 07:43:14;;;;;;;16.50;4.07;;;;;;;;;;10267030;28;20015;-74
2022/09/23 07:48:14;;;;;;;7.30;4.05;;;;;;;;;;10267995;28;20050;-75
2022/09/23 07:53:14;;;;;;;5.95;3.80;;;;;;;;;;10286217;28;20105;-75
2022/09/23 07:58:15;;;;;;;8.67;3.73;;;;;;;;;;10280390;28;20105;-78
2022/09/23 08:03:15;;;;;;;6.28;3.88;;;;;;;;;;10268464;28;20029;-81
2022/09/23 08:08:16;;;;;;;13.68;4.30;;;;;;;;;;10266661;28;20023;-73
2022/09/23 08:13:16;;;;;;;7.20;3.72;;;;;;;;;;10256624;28;20505;-77
2022/09/23 08:18:16;;;;;;;4.00;2.90;;;;;;;;;;10285678;28;20529;-75
2022/09/23 08:23:17;;;;;;;6.32;3.70;;;;;;;;;;10251851;28;20334;-74
2022/09/23 08:28:18;;;;;;;5.90;3.38;;;;;;;;;;10267636;28;20023;-78
2022/09/23 08:33:18;;;;;;;6.95;4.22;;;;;;;;;;10267299;28;20156;-81
2022/09/23 08:38:19;;;;;;;7.68;3.95;;;;;;;;;;10266874;28;20085;-73
2022/09/23 08:43:22;;;;;;;11.70;4.30;;;;;;;;;;10267198;28;20007;-75
2022/09/23 08:48:28;;;;;;;4.72;3.45;;;;;;;;;;10284250;28;20129;-74
2022/09/23 08:53:31;;;;;;;4.35;3.60;;;;;;;;;;10262636;28;20390;-73
2022/09/23 08:58:35;;;;;;;5.25;3.67;;;;;;;;;;10266355;28;20494;-74
2022/09/23 09:03:39;;;;;;;5.35;3.50;;;;;;;;;;10267455;28;20434;-74
2022/09/23 09:08:41;;;;;;;4.47;3.42;;;;;;;;;;10260552;28;20023;-74
2022/09/23 09:13:47;;;;;;;7.60;3.75;;;;;;;;;;10273226;28;20125;-73
2022/09/23 09:18:52;;;;;;;3.20;2.88;;;;;;;;;;10264692;28;20038;-74
2022/09/23 09:23:54;;;;;;;3.20;2.40;;;;;;;;;;10229945;28;20019;-74
2022/09/23 09:29:01;;;;;;;5.15;3.35;;;;;;;;;;10265745;28;20022;-78
2022/09/23 09:34:10;;;;;;;3.38;2.80;;;;;;;;;;10250112;28;20544;-76
2022/09/23 09:39:14;;;;;;;6.50;2.05;;;;;;;;;;10264835;28;20441;-74
2022/09/23 09:44:20;;;;;;;3.83;1.70;;;;;;;;;;10273617;28;20050;-74
2022/09/23 09:49:21;;;;;;;3.40;2.08;;;;;;;;;;10248599;28;20077;-78
2022/09/23 09:54:24;;;;;;;2.65;1.75;;;;;;;;;;10248820;28;20015;-74
2022/09/23 09:59:26;;;;;;;2.15;1.77;;;;;;;;;;10249151;28;20456;-74
2022/09/23 10:04:33;;;;;;;2.00;1.70;;;;;;;;;;10248178;28;20019;-74
2022/09/23 10:09:35;;;;;;;3.15;1.42;;;;;;;;;;10233122;28;20030;-74
2022/09/23 10:14:35;;;;;;;1.95;0.93;;;;;;;;;;10248902;28;20574;-75
2022/09/23 10:19:37;;;;;;;4.03;1.30;;;;;;;;;;10243294;28;20027;-74
2022/09/23 10:24:40;;;;;;;2.58;1.13;;;;;;;;;;10231418;28;20145;-78
2022/09/23 10:29:46;;;;;;;2.08;1.17;;;;;;;;;;10248084;28;20023;-75
2022/09/23 10:34:46;;;;;;;;;;;;;;;;;;10249157;28;20275;-74
2022/09/23 10:50:47;;;;;;;4.53;1.50;;;;;;;;;;10243688;28;20506;-75
2022/09/23 10:55:50;;;;;;;5.90;1.20;;;;;;;;;;10231358;28;20027;-75
2022/09/23 11:01:14;;;;;;;2.45;1.00;;;;;;;;;;10247029;28;20644;-78
2022/09/23 11:06:17;;;;;;;2.95;1.10;;;;;;;;;;10221658;28;20459;-75
2022/09/23 11:11:55;;;;;;;2.95;1.48;;;;;;;;;;10245143;28;20033;-82
2022/09/23 11:17:01;;;;;;;1.77;0.90;;;;;;;;;;10248650;28;20019;-74
2022/09/23 11:22:02;;;;;;;;;;;;;;;;;;10246503;28;20610;-79
2022/09/23 11:27:20;;;;;;;2.70;1.17;;;;;;;;;;10246085;28;19994;-76
2022/09/23 11:32:30;;;;;;;3.72;1.63;;;;;;;;;;10240926;28;20023;-75
2022/09/23 11:37:39;;;;;;;2.58;2.08;;;;;;;;;;10234716;28;20520;-74
2022/09/23 11:43:00;;;;;;;1.75;1.38;;;;;;;;;;10243823;28;20019;-75
2022/09/23 11:48:03;;;;;;;3.10;1.40;;;;;;;;;;10265619;28;20051;-73
2022/09/23 11:53:11;;;;;;;10.35;2.63;;;;;;;;;;10276799;28;20509;-73
2022/09/23 11:58:26;;;;;;;2.45;1.20;;;;;;;;;;10235106;28;20501;-74
2022/09/23 12:03:35;;;;;;;1.45;1.20;;;;;;;;;;10267480;28;20027;-74
2022/09/23 12:08:38;;;;;;;;;;;;;;;;;;10255806;28;20033;-79
2022/09/23 12:13:42;;;;;;;1.42;1.10;;;;;;;;;;10265443;28;19912;-79
2022/09/23 12:18:55;;;;;;;3.13;1.38;;;;;;;;;;10279979;28;20397;-74
2022/09/23 12:23:55;;;;;;;4.00;2.15;;;;;;;;;;10267296;28;20019;-75
2022/09/23 12:28:59;;;;;;;7.72;1.80;;;;;;;;;;10267351;28;20027;-74
2022/09/23 12:34:00;;;;;;;3.38;1.75;;;;;;;;;;10267148;28;20073;-74
2022/09/23 12:39:05;;;;;;;1.98;1.70;;;;;;;;;;10267090;28;20026;-74
2022/09/23 12:44:09;;;;;;;3.10;1.60;;;;;;;;;;10268810;28;20015;-74
2022/09/23 12:49:24;;;;;;;2.30;1.50;;;;;;;;;;10243106;28;20074;-76
2022/09/23 12:54:24;;;;;;;9.23;4.03;;;;;;;;;;10243614;28;20023;-74
2022/09/23 12:59:29;;;;;;;3.25;1.77;;;;;;;;;;10242923;28;20027;-78
2022/09/23 13:09:51;;;;;;;2.97;2.05;;;;;;;;;;10228021;28;20365;-74
2022/09/23 13:14:52;;;;;;;2.60;1.83;;;;;;;;;;10223862;28;20032;-75
2022/09/23 13:19:58;;;;;;;2.90;2.08;;;;;;;;;;10231112;28;20555;-75
2022/09/23 13:25:00;;;;;;;4.38;2.13;;;;;;;;;;10231558;28;20023;-74
2022/09/23 13:30:03;;;;;;;2.75;1.90;;;;;;;;;;10229430;28;20027;-75
2022/09/23 13:35:24;;;;;;;2.42;1.70;;;;;;;;;;10232905;28;20035;-75
2022/09/23 13:40:28;;;;;;;3.67;1.95;;;;;;;;;;10248496;28;20034;-75
2022/09/23 13:45:32;;;;;;;3.33;2.40;;;;;;;;;;10230958;28;20027;-75
2022/09/23 13:50:34;;;;;;;3.55;2.35;;;;;;;;;;10254957;28;20491;-74
2022/09/23 13:55:38;;;;;;;4.45;2.08;;;;;;;;;;10252733;28;20109;-76
2022/09/23 14:00:38;;;;;;;2.17;1.92;;;;;;;;;;10265573;28;20019;-75
2022/09/23 14:05:39;;;;;;;3.10;1.60;;;;;;;;;;10255801;28;20493;-75
2022/09/23 14:10:41;;;;;;;4.95;2.20;;;;;;;;;;10258252;28;20515;-74
2022/09/23 14:15:42;;;;;;;3.40;2.28;;;;;;;;;;10271114;28;20130;-74
2022/09/23 14:20:47;;;;;;;5.75;2.30;;;;;;;;;;10247272;28;20031;-74
2022/09/23 14:25:49;;;;;;;2.25;1.92;;;;;;;;;;10255092;28;20158;-77
2022/09/23 14:30:50;;;;;;;1.77;1.48;;;;;;;;;;10257575;28;20031;-74
2022/09/23 14:35:52;;;;;;;5.50;1.55;;;;;;;;;;10255089;28;20417;-78
2022/09/23 14:41:14;;;;;;;3.55;2.13;;;;;;;;;;10257977;28;20157;-78
2022/09/23 14:46:18;;;;;;;1.75;1.60;;;;;;;;;;10277582;28;20053;-78
2022/09/23 14:51:19;;;;;;;3.95;1.98;;;;;;;;;;10257791;28;20025;-79
2022/09/23 14:56:21;;;;;;;5.13;1.83;;;;;;;;;;10257590;28;20035;-74
2022/09/23 15:01:24;;;;;;;3.03;1.75;;;;;;;;;;10267563;28;20084;-74
2022/09/23 15:06:24;;;;;;;2.70;1.73;;;;;;;;;;10258433;28;20336;-76
2022/09/23 15:11:25;;;;;;;5.15;1.95;;;;;;;;;;10245447;28;20027;-78
2022/09/23 15:16:26;;;;;;;5.20;3.35;;;;;;;;;;10256424;28;20019;-79
2022/09/23 15:21:39;;;;;;;3.53;2.00;;;;;;;;;;10257255;28;20026;-77
2022/09/23 15:26:44;;;;;;;3.22;2.15;;;;;;;;;;10277762;28;20118;-77
2022/09/23 15:31:45;;;;;;;4.68;2.15;;;;;;;;;;10261510;28;20033;-77
2022/09/23 15:36:45;;;;;;;3.15;1.98;;;;;;;;;;10258299;28;20523;-78
2022/09/23 15:41:46;;;;;;;7.32;2.25;;;;;;;;;;10258030;28;20031;-78
2022/09/23 15:46:50;;;;;;;3.28;2.55;;;;;;;;;;10276486;28;20071;-78
2022/09/23 15:51:50;;;;;;;4.43;3.22;;;;;;;;;;10273669;28;20018;-79
2022/09/23 15:56:51;;;;;;;3.63;2.40;;;;;;;;;;10257758;28;20697;-78
2022/09/23 16:01:51;;;;;;;6.78;2.88;;;;;;;;;;10254625;28;20066;-74
2022/09/23 16:06:51;;;;;;;5.35;3.05;;;;;;;;;;10255025;28;20101;-78
2022/09/23 16:11:52;;;;;;;5.22;3.92;;;;;;;;;;10259098;28;20030;-77
2022/09/23 16:16:52;;;;;;;3.47;2.35;;;;;;;;;;10260754;28;20030;-77
2022/09/23 16:21:52;;;;;;;5.72;2.97;;;;;;;;;;10275096;28;20137;-78
2022/09/23 16:26:58;;;;;;;2.75;2.55;;;;;;;;;;10260426;28;20372;-77
2022/09/23 16:31:59;;;;;;;4.57;2.92;;;;;;;;;;10239979;28;20033;-77
2022/09/23 16:37:00;;;;;;;5.85;3.30;;;;;;;;;;10274686;28;20081;-78
2022/09/23 16:42:01;;;;;;;7.03;3.08;;;;;;;;;;10255492;28;20564;-77
2022/09/23 16:47:01;;;;;;;7.78;5.22;;;;;;;;;;10257347;28;20062;-74
2022/09/23 16:52:01;;;;;;;4.40;3.15;;;;;;;;;;10256218;28;20019;-78
2022/09/23 16:57:01;;;;;;;6.33;3.00;;;;;;;;;;10273289;28;20031;-77
2022/09/23 17:07:20;;;;;;;5.15;3.60;;;;;;;;;;10277202;28;20019;-79
2022/09/23 17:12:26;;;;;;;5.70;4.05;;;;;;;;;;10255933;28;20022;-80
2022/09/23 17:17:27;;;;;;;6.75;4.28;;;;;;;;;;10255326;28;20432;-79
2022/09/23 17:22:28;;;;;;;6.13;4.63;;;;;;;;;;10253827;28;20034;-80
2022/09/23 17:27:30;;;;;;;8.65;3.55;;;;;;;;;;10258654;28;20103;-76
2022/09/23 17:32:30;;;;;;;6.88;3.72;;;;;;;;;;10253851;28;20042;-81
2022/09/23 17:37:31;;;;;;;5.00;3.65;;;;;;;;;;10254628;28;20038;-75
2022/09/23 17:42:32;;;;;;;7.95;4.68;;;;;;;;;;10255411;28;20117;-76
2022/09/23 17:47:32;;;;;;;6.80;3.38;;;;;;;;;;10273335;28;20517;-74
2022/09/23 17:52:32;;;;;;;8.60;3.63;;;;;;;;;;10249430;28;20118;-78
2022/09/23 17:57:32;;;;;;;9.35;4.15;;;;;;;;;;10246167;28;20037;-75
2022/09/23 18:02:33;;;;;;;9.35;5.00;;;;;;;;;;10256939;28;20039;-76
2022/09/23 18:07:33;;;;;;;8.25;5.22;;;;;;;;;;10252198;28;20086;-74
2022/09/23 18:12:33;;;;;;;8.02;4.60;;;;;;;;;;10254790;28;20479;-78
2022/09/23 18:17:33;;;;;;;14.32;4.65;;;;;;;;;;10254706;28;20027;-79
2022/09/23 18:22:34;;;;;;;7.82;4.05;;;;;;;;;;10256117;28;20090;-75
2022/09/23 18:27:34;;;;;;;8.75;4.40;;;;;;;;;;10257109;28;20446;-75
2022/09/23 18:32:35;;;;;;;8.27;4.97;;;;;;;;;;10271461;28;20025;-73
2022/09/23 18:37:35;;;;;;;11.50;6.60;;;;;;;;;;10263068;28;20124;-77
2022/09/23 18:42:39;;;;;;;10.32;5.70;;;;;;;;;;10260320;28;20523;-78
2022/09/23 18:52:58;;;;;;;9.40;5.65;;;;;;;;;;10265185;28;20023;-78
2022/09/23 18:57:59;;;;;;;8.63;5.13;;;;;;;;;;10252297;28;20022;-74
2022/09/23 19:02:59;;;;;;;12.03;5.00;;;;;;;;;;10228672;28;20023;-78
2022/09/23 19:07:59;;;;;;;7.90;4.40;;;;;;;;;;10260423;28;20074;-75
2022/09/23 19:13:00;;;;;;;8.52;4.93;;;;;;;;;;10247106;28;20119;-74
2022/09/23 19:18:00;;;;;;;5.93;3.80;;;;;;;;;;10247152;28;20158;-75
2022/09/23 19:23:00;;;;;;;7.57;3.83;;;;;;;;;;10252726;28;20039;-77
2022/09/23 19:28:04;;;;;;;11.18;4.57;;;;;;;;;;10251249;28;20513;-80
2022/09/23 19:33:05;;;;;;;6.95;3.80;;;;;;;;;;10249924;28;20514;-74
2022/09/23 19:38:05;;;;;;;9.40;4.95;;;;;;;;;;10248463;28;20131;-79
2022/09/23 19:43:05;;;;;;;7.55;3.92;;;;;;;;;;10249848;28;20478;-78
2022/09/23 19:48:07;;;;;;;3.92;3.22;;;;;;;;;;10254424;28;20047;-77
2022/09/23 19:53:08;;;;;;;10.35;4.45;;;;;;;;;;10259776;28;20397;-74
2022/09/23 19:58:08;;;;;;;6.35;4.03;;;;;;;;;;10256372;28;20027;-78
2022/09/23 20:03:09;;;;;;;6.10;3.22;;;;;;;;;;10254195;28;20023;-75
2022/09/23 20:08:09;;;;;;;4.83;2.60;;;;;;;;;;10257011;28;20133;-76
2022/09/23 20:13:11;;;;;;;3.92;2.85;;;;;;;;;;10258416;28;20097;-75
2022/09/23 20:18:11;;;;;;;5.57;3.10;;;;;;;;;;10256379;28;20109;-76
2022/09/23 20:23:11;;;;;;;4.55;2.97;;;;;;;;;;10255919;28;20484;-75
2022/09/23 20:28:11;;;;;;;7.28;2.78;;;;;;;;;;10255118;28;20031;-74
2022/09/23 20:33:14;;;;;;;5.30;3.00;;;;;;;;;;10256223;28;20045;-75
2022/09/23 20:38:15;;;;;;;5.05;2.90;;;;;;;;;;10258694;28;20039;-75
2022/09/23 20:43:17;;;;;;;8.88;2.90;;;;;;;;;;10257515;28;20040;-75
2022/09/23 20:48:17;;;;;;;9.25;4.20;;;;;;;;;;10257610;28;20426;-75
2022/09/23 20:53:18;;;;;;;12.00;6.45;;;;;;;;;;10250429;28;20031;-77
2022/09/23 20:58:18;;;;;;;17.65;8.23;;;;;;;;;;10253965;28;20500;-76
2022/09/23 21:03:19;;;;;;;17.27;9.00;;;;;;;;;;10254447;28;20449;-73
2022/09/23 21:08:19;;;;;;;21.97;8.90;;;;;;;;;;10256881;28;20361;-78
2022/09/23 21:13:19;;;;;;;19.20;8.63;;;;;;;;;;10256630;28;20641;-74
2022/09/23 21:18:19;;;;;;;14.93;8.65;;;;;;;;;;10258364;28;20081;-76
2022/09/23 21:23:22;;;;;;;11.33;4.47;;;;;;;;;;10256958;28;20027;-75
2022/09/23 21:28:22;;;;;;;10.20;4.30;;;;;;;;;;10254656;28;20477;-75
2022/09/23 21:33:23;;;;;;;6.18;3.67;;;;;;;;;;10258934;28;20034;-77
2022/09/23 21:38:23;;;;;;;6.20;3.90;;;;;;;;;;10262223;28;20023;-79
2022/09/23 21:43:24;;;;;;;5.10;3.55;;;;;;;;;;10266556;28;20102;-79
2022/09/23 21:48:29;;;;;;;4.35;3.13;;;;;;;;;;10253505;28;20067;-79
2022/09/23 21:53:30;;;;;;;5.13;3.50;;;;;;;;;;10252436;28;20031;-78
2022/09/23 21:58:30;;;;;;;6.95;3.65;;;;;;;;;;10235239;28;20023;-77
2022/09/23 22:03:31;;;;;;;9.07;3.65;;;;;;;;;;10235442;28;20011;-79
2022/09/23 22:08:33;;;;;;;6.00;3.50;;;;;;;;;;10236209;28;20125;-77
2022/09/23 22:13:33;;;;;;;5.97;3.78;;;;;;;;;;10234876;28;20034;-78
2022/09/23 22:18:34;;;;;;;5.18;3.60;;;;;;;;;;10234860;28;20023;-77
2022/09/23 22:23:34;;;;;;;7.85;3.47;;;;;;;;;;10234130;28;20025;-77
2022/09/23 22:33:53;;;;;;;6.55;4.05;;;;;;;;;;10236056;28;20019;-79
2022/09/23 22:38:59;;;;;;;4.43;2.88;;;;;;;;;;10236777;29;20020;-79
2022/09/23 22:44:00;;;;;;;3.67;3.17;;;;;;;;;;10236114;28;20023;-78
2022/09/23 22:49:01;;;;;;;5.93;3.55;;;;;;;;;;10258996;28;20050;-81
2022/09/23 22:54:01;;;;;;;4.78;3.03;;;;;;;;;;10255567;28;20599;-79
2022/09/23 22:59:02;;;;;;;4.07;3.00;;;;;;;;;;10256081;28;20030;-80
2022/09/23 23:04:03;;;;;;;4.97;2.65;;;;;;;;;;10267108;28;20444;-79
2022/09/23 23:09:06;;;;;;;5.82;3.25;;;;;;;;;;10265468;28;20026;-77
2022/09/23 23:14:07;;;;;;;2.72;2.53;;;;;;;;;;10253368;28;20033;-78
2022/09/23 23:19:10;;;;;;;5.32;2.78;;;;;;;;;;10253763;28;20018;-79
2022/09/23 23:24:14;;;;;;;3.95;3.17;;;;;;;;;;10264775;28;20027;-77
2022/09/23 23:29:16;;;;;;;4.47;3.30;;;;;;;;;;10252490;28;20023;-77
2022/09/23 23:34:17;;;;;;;3.85;2.92;;;;;;;;;;10253255;28;20090;-76
2022/09/23 23:39:17;;;;;;;3.92;2.75;;;;;;;;;;10252959;28;21589;-78
2022/09/23 23:44:18;;;;;;;3.35;3.05;;;;;;;;;;10246783;28;20063;-78
2022/09/23 23:49:18;;;;;;;3.60;3.00;;;;;;;;;;10246949;28;20051;-79
2022/09/23 23:54:18;;;;;;;5.68;3.20;;;;;;;;;;10257926;28;20031;-78
2022/09/23 23:59:19;;;;;;;4.82;3.50;;;;;;;;;;10254201;28;20027;-79
